createdAt,value
2019-03-10T00:01:23.507Z,99.90
2019-03-10T00:03:51.164Z,99.90
2019-03-10T00:06:18.823Z,99.90
2019-03-10T00:08:46.486Z,99.90
2019-03-10T00:11:14.143Z,99.90
2019-03-10T00:13:46.824Z,99.90
2019-03-10T00:16:14.491Z,99.90
2019-03-10T00:18:42.124Z,99.90
2019-03-10T00:21:09.780Z,99.90
2019-03-10T00:23:38.410Z,99.90
2019-03-10T00:26:06.059Z,99.90
2019-03-10T00:28:33.719Z,99.90
2019-03-10T00:31:01.378Z,99.90
2019-03-10T00:33:34.975Z,99.90
2019-03-10T00:36:02.654Z,99.90
2019-03-10T00:38:31.840Z,99.90
2019-03-10T00:41:13.104Z,99.90
2019-03-10T00:44:00.317Z,99.90
2019-03-10T00:46:45.736Z,99.90
2019-03-10T00:49:30.032Z,99.90
2019-03-10T00:52:03.283Z,99.90
2019-03-10T00:54:30.952Z,99.90
2019-03-10T00:56:58.606Z,99.90
2019-03-10T00:59:26.263Z,99.90
2019-03-10T01:01:53.943Z,99.90
2019-03-10T01:04:21.640Z,99.90
2019-03-10T01:06:49.400Z,99.90
2019-03-10T01:09:17.068Z,99.90
2019-03-10T01:11:44.924Z,99.90
2019-03-10T01:14:14.389Z,99.90
2019-03-10T01:16:42.052Z,99.90
2019-03-10T01:19:10.368Z,99.90
2019-03-10T01:21:37.998Z,99.90
2019-03-10T01:24:11.487Z,99.90
2019-03-10T01:26:39.133Z,99.90
2019-03-10T01:29:06.805Z,99.90
2019-03-10T01:31:48.055Z,99.90
2019-03-10T01:34:19.214Z,99.90
2019-03-10T01:36:46.891Z,99.90
2019-03-10T01:39:14.688Z,99.90
2019-03-10T01:41:42.347Z,99.90
2019-03-10T01:44:11.939Z,99.90
2019-03-10T01:46:39.618Z,99.90
2019-03-10T01:49:08.496Z,99.90
2019-03-10T01:51:36.156Z,99.90
2019-03-10T01:54:09.666Z,99.90
2019-03-10T01:56:37.442Z,99.90
2019-03-10T01:59:05.096Z,99.90
2019-03-10T02:01:32.745Z,99.90
2019-03-10T02:04:00.389Z,99.90
2019-03-10T02:06:28.047Z,99.90
2019-03-10T02:08:55.707Z,99.90
2019-03-10T02:11:23.360Z,99.90
2019-03-10T02:13:51.025Z,99.90
2019-03-10T02:16:18.678Z,99.90
2019-03-10T02:18:46.350Z,99.90
2019-03-10T02:21:13.995Z,99.90
2019-03-10T02:23:51.503Z,99.90
2019-03-10T02:26:19.147Z,99.90
2019-03-10T02:28:46.838Z,99.90
2019-03-10T02:31:14.489Z,99.90
2019-03-10T02:33:48.208Z,99.90
2019-03-10T02:36:16.964Z,99.90
2019-03-10T02:38:44.617Z,99.90
2019-03-10T02:41:12.289Z,99.90
2019-03-10T02:43:41.892Z,99.90
2019-03-10T02:46:09.590Z,99.90
2019-03-10T02:48:37.219Z,99.90
2019-03-10T02:51:04.887Z,99.90
2019-03-10T02:53:36.822Z,99.90
2019-03-10T02:56:04.484Z,99.90
2019-03-10T02:58:32.133Z,99.90
2019-03-10T03:00:59.784Z,99.90
2019-03-10T03:03:29.419Z,99.90
2019-03-10T03:05:57.073Z,99.90
2019-03-10T03:08:24.718Z,99.90
2019-03-10T03:10:52.375Z,99.90
2019-03-10T03:13:20.024Z,99.90
2019-03-10T03:15:47.667Z,99.90
2019-03-10T03:18:15.316Z,99.90
2019-03-10T03:20:42.968Z,99.90
2019-03-10T03:23:12.580Z,99.90
2019-03-10T03:25:40.238Z,99.90
2019-03-10T03:28:07.899Z,99.90
2019-03-10T03:30:35.624Z,99.90
2019-03-10T03:33:03.264Z,99.90
2019-03-10T03:35:32.575Z,99.90
2019-03-10T03:38:00.333Z,99.90
2019-03-10T03:40:27.973Z,99.90
2019-03-10T03:42:55.723Z,99.90
2019-03-10T03:45:23.372Z,99.90
2019-03-10T03:47:51.031Z,99.90
2019-03-10T03:50:18.687Z,99.90
2019-03-10T03:52:55.168Z,99.90
2019-03-10T03:55:22.835Z,99.90
2019-03-10T03:57:50.498Z,99.90
2019-03-10T04:00:18.207Z,99.90
2019-03-10T04:02:52.884Z,99.90
2019-03-10T04:05:20.572Z,99.90
2019-03-10T04:07:48.228Z,99.90
2019-03-10T04:10:15.855Z,99.90
2019-03-10T04:12:44.453Z,99.90
2019-03-10T04:15:12.219Z,99.90
2019-03-10T04:17:39.886Z,99.90
2019-03-10T04:20:08.503Z,99.90
2019-03-10T04:22:41.338Z,99.90
2019-03-10T04:25:09.124Z,99.90
2019-03-10T04:27:36.783Z,99.90
2019-03-10T04:30:06.112Z,99.90
2019-03-10T04:32:41.618Z,99.90
2019-03-10T04:35:09.275Z,99.90
2019-03-10T04:37:36.928Z,99.90
2019-03-10T04:40:05.562Z,99.90
2019-03-10T04:42:33.215Z,99.90
2019-03-10T04:45:00.879Z,99.90
2019-03-10T04:47:28.541Z,99.90
2019-03-10T04:49:56.178Z,99.90
2019-03-10T04:52:32.592Z,99.90
2019-03-10T04:55:04.373Z,99.90
2019-03-10T04:57:32.062Z,99.90
2019-03-10T04:59:59.738Z,99.90
2019-03-10T05:02:28.079Z,99.90
2019-03-10T05:04:55.768Z,99.90
2019-03-10T05:07:23.522Z,99.90
2019-03-10T05:09:51.211Z,99.90
2019-03-10T05:12:18.855Z,99.90
2019-03-10T05:14:46.519Z,99.90
2019-03-10T05:17:14.168Z,99.90
2019-03-10T05:19:41.816Z,99.90
2019-03-10T05:22:09.498Z,99.90
2019-03-10T05:24:37.143Z,99.90
2019-03-10T05:27:04.808Z,99.90
2019-03-10T05:29:32.470Z,99.90
2019-03-10T05:32:00.114Z,99.90
2019-03-10T05:34:27.758Z,99.90
2019-03-10T05:36:55.403Z,99.90
2019-03-10T05:39:23.057Z,99.90
2019-03-10T05:41:50.711Z,99.90
2019-03-10T05:44:18.354Z,99.90
2019-03-10T05:46:45.997Z,99.90
2019-03-10T05:49:13.659Z,99.90
2019-03-10T05:51:41.299Z,99.90
2019-03-10T05:54:16.978Z,99.90
2019-03-10T05:56:44.635Z,99.90
2019-03-10T05:59:12.287Z,99.90
2019-03-10T06:01:39.943Z,99.90
2019-03-10T06:04:13.559Z,99.90
2019-03-10T06:06:41.214Z,99.90
2019-03-10T06:09:08.858Z,99.90
2019-03-10T06:11:36.545Z,99.90
2019-03-10T06:14:04.200Z,99.90
2019-03-10T06:16:31.858Z,99.90
2019-03-10T06:18:59.506Z,99.90
2019-03-10T06:21:27.171Z,99.90
2019-03-10T06:23:55.757Z,99.90
2019-03-10T06:26:23.406Z,99.90
2019-03-10T06:28:51.143Z,99.90
2019-03-10T06:31:18.784Z,99.90
2019-03-10T06:33:46.419Z,99.90
2019-03-10T06:36:14.094Z,99.90
2019-03-10T06:38:41.739Z,99.90
2019-03-10T06:41:09.387Z,99.90
2019-03-10T06:43:37.044Z,99.90
2019-03-10T06:46:04.702Z,99.90
2019-03-10T06:48:32.343Z,99.90
2019-03-10T06:51:00.000Z,99.90
2019-03-10T06:53:33.720Z,99.90
2019-03-10T06:56:01.383Z,99.90
2019-03-10T06:58:29.013Z,99.90
2019-03-10T07:00:56.656Z,99.90
2019-03-10T07:03:26.217Z,99.90
2019-03-10T07:05:53.863Z,99.90
2019-03-10T07:08:21.515Z,99.90
2019-03-10T07:10:49.142Z,99.90
2019-03-10T07:13:16.794Z,99.90
2019-03-10T07:15:44.438Z,99.90
2019-03-10T07:18:12.086Z,99.90
2019-03-10T07:20:39.729Z,99.90
2019-03-10T07:23:10.990Z,99.90
2019-03-10T07:25:38.626Z,99.90
2019-03-10T07:28:10.838Z,99.90
2019-03-10T07:30:40.106Z,99.90
2019-03-10T07:33:12.527Z,99.90
2019-03-10T07:35:50.534Z,99.90
2019-03-10T07:38:19.838Z,99.90
2019-03-10T07:40:58.146Z,99.90
2019-03-10T07:43:37.431Z,99.90
2019-03-10T07:46:22.966Z,99.90
2019-03-10T07:49:10.475Z,99.90
2019-03-10T07:51:55.986Z,99.90
2019-03-10T07:54:25.291Z,99.90
2019-03-10T07:57:12.765Z,99.90
2019-03-10T08:00:00.415Z,99.90
2019-03-10T08:02:38.219Z,99.90
2019-03-10T08:05:13.735Z,99.90
2019-03-10T08:10:44.228Z,99.90
2019-03-10T08:13:29.838Z,99.90
2019-03-10T08:16:01.887Z,99.90
2019-03-10T08:18:43.354Z,99.90
2019-03-10T08:21:15.327Z,99.90
2019-03-10T08:23:44.606Z,99.90
2019-03-10T08:26:22.947Z,99.90
2019-03-10T08:29:04.458Z,99.90
2019-03-10T08:31:52.213Z,99.90
2019-03-10T08:34:36.380Z,99.90
2019-03-10T08:37:22.133Z,99.90
2019-03-10T08:40:00.658Z,99.90
2019-03-10T08:42:52.985Z,99.90
2019-03-10T08:45:37.358Z,99.90
2019-03-10T08:48:09.346Z,99.90
2019-03-10T08:50:41.314Z,99.90
2019-03-10T08:53:10.621Z,99.90
2019-03-10T08:55:39.899Z,99.90
2019-03-10T08:58:15.368Z,99.90
2019-03-10T09:01:03.758Z,99.90
2019-03-10T09:03:42.934Z,99.90
2019-03-10T09:06:15.131Z,99.90
2019-03-10T09:09:01.038Z,99.90
2019-03-10T09:11:48.377Z,99.90
2019-03-10T09:14:34.308Z,99.90
2019-03-10T09:17:03.648Z,99.90
2019-03-10T09:19:41.694Z,99.90
2019-03-10T09:22:16.517Z,99.90
2019-03-10T09:24:48.477Z,99.90
2019-03-10T09:27:17.751Z,99.90
2019-03-10T09:29:52.781Z,99.90
2019-03-10T09:32:36.713Z,99.90
2019-03-10T09:35:15.393Z,99.90
2019-03-10T09:37:44.692Z,99.90
2019-03-10T09:42:48.679Z,99.90
2019-03-10T09:45:20.467Z,99.90
2019-03-10T09:47:55.735Z,99.90
2019-03-10T09:50:27.714Z,99.90
2019-03-10T09:53:14.875Z,99.90
2019-03-10T09:56:00.629Z,99.90
2019-03-10T09:58:35.722Z,99.90
2019-03-10T10:01:05.026Z,99.90
2019-03-10T10:03:37.011Z,99.90
2019-03-10T10:08:56.368Z,99.90
2019-03-10T10:11:40.947Z,99.90
2019-03-10T10:14:13.454Z,99.90
2019-03-10T10:16:48.811Z,99.90
2019-03-10T10:19:18.097Z,99.90
2019-03-10T10:21:53.155Z,99.90
2019-03-10T10:24:28.446Z,99.90
2019-03-10T10:27:00.771Z,99.90
2019-03-10T10:29:35.986Z,99.90
2019-03-10T10:32:22.023Z,99.90
2019-03-10T10:34:57.218Z,99.90
2019-03-10T10:37:28.931Z,99.90
2019-03-10T10:40:14.670Z,99.90
2019-03-10T10:42:46.640Z,99.90
2019-03-10T10:45:24.723Z,99.90
2019-03-10T10:47:54.009Z,99.90
2019-03-10T10:50:38.023Z,99.90
2019-03-10T10:53:24.668Z,99.90
2019-03-10T10:55:53.934Z,99.90
2019-03-10T10:58:35.234Z,99.90
2019-03-10T11:01:19.751Z,99.90
2019-03-10T11:04:01.256Z,99.90
2019-03-10T11:09:14.800Z,99.90
2019-03-10T11:12:00.786Z,99.90
2019-03-10T11:14:39.013Z,99.90
2019-03-10T11:17:24.786Z,99.90
2019-03-10T11:20:12.162Z,99.90
2019-03-10T11:22:59.771Z,99.90
2019-03-10T11:25:29.045Z,99.90
2019-03-10T11:27:58.330Z,99.90
2019-03-10T11:30:30.463Z,99.90
2019-03-10T11:33:05.940Z,99.90
2019-03-10T11:35:53.392Z,99.90
2019-03-10T11:38:25.503Z,99.90
2019-03-10T11:41:00.574Z,99.90
2019-03-10T11:43:32.866Z,99.90
2019-03-10T11:46:21.370Z,99.90
2019-03-10T11:48:53.374Z,99.90
2019-03-10T11:51:28.470Z,99.90
2019-03-10T11:54:03.790Z,99.90
2019-03-10T11:56:35.752Z,99.90
2019-03-10T11:59:05.113Z,99.90
2019-03-10T12:01:40.374Z,99.90
2019-03-10T12:04:32.569Z,99.90
2019-03-10T12:07:18.339Z,99.90
2019-03-10T12:09:45.998Z,99.90
2019-03-10T12:12:13.639Z,99.90
2019-03-10T12:14:41.291Z,99.90
2019-03-10T12:17:08.939Z,99.90
2019-03-10T12:19:36.588Z,99.90
2019-03-10T12:22:04.228Z,99.90
2019-03-10T12:24:31.873Z,99.90
2019-03-10T12:26:59.508Z,99.90
2019-03-10T12:29:27.159Z,99.90
2019-03-10T12:31:54.922Z,99.90
2019-03-10T12:34:22.638Z,99.90
2019-03-10T12:36:50.431Z,99.90
2019-03-10T12:39:18.139Z,99.90
2019-03-10T12:41:45.803Z,99.90
2019-03-10T12:44:13.438Z,99.90
2019-03-10T12:46:41.098Z,99.90
2019-03-10T12:49:08.754Z,99.90
2019-03-10T12:51:36.442Z,99.90
2019-03-10T12:54:04.091Z,99.90
2019-03-10T12:56:31.759Z,99.90
2019-03-10T12:58:59.493Z,99.90
2019-03-10T13:01:27.247Z,99.90
2019-03-10T13:04:00.890Z,99.90
2019-03-10T13:06:28.605Z,99.90
2019-03-10T13:08:56.259Z,99.90
2019-03-10T13:11:23.935Z,99.90
2019-03-10T13:13:57.371Z,99.90
2019-03-10T13:16:25.035Z,99.90
2019-03-10T13:18:52.687Z,99.90
2019-03-10T13:21:20.398Z,99.90
2019-03-10T13:23:51.079Z,99.90
2019-03-10T13:26:18.764Z,99.90
2019-03-10T13:28:46.403Z,99.90
2019-03-10T13:31:14.145Z,99.90
2019-03-10T13:33:41.793Z,99.90
2019-03-10T13:36:09.459Z,99.90
2019-03-10T13:38:37.114Z,99.90
2019-03-10T13:41:04.759Z,99.90
2019-03-10T13:46:20.870Z,99.90
2019-03-10T13:51:16.010Z,99.90
2019-03-10T13:53:43.662Z,99.90
2019-03-10T13:56:11.320Z,99.90
2019-03-10T13:58:38.962Z,99.90
2019-03-10T14:01:06.619Z,99.90
2019-03-10T14:03:34.282Z,99.90
2019-03-10T14:06:01.951Z,99.90
2019-03-10T14:08:29.586Z,99.90
2019-03-10T14:10:57.247Z,99.90
2019-03-10T14:13:30.015Z,99.90
2019-03-10T14:15:57.688Z,99.90
2019-03-10T14:18:25.399Z,99.90
2019-03-10T14:20:53.165Z,99.90
2019-03-10T14:23:27.210Z,99.90
2019-03-10T14:25:54.847Z,99.90
2019-03-10T14:28:22.513Z,99.90
2019-03-10T14:30:50.134Z,99.90
2019-03-10T14:33:18.790Z,99.90
2019-03-10T14:35:46.494Z,99.90
2019-03-10T14:38:14.142Z,99.90
2019-03-10T14:40:41.779Z,99.90
2019-03-10T14:43:10.387Z,99.90
2019-03-10T14:45:38.021Z,99.90
2019-03-10T14:48:05.707Z,99.90
2019-03-10T14:50:33.351Z,99.90
2019-03-10T14:53:01.061Z,99.90
2019-03-10T14:55:28.690Z,99.90
2019-03-10T14:57:56.346Z,99.90
2019-03-10T15:00:27.284Z,99.90
2019-03-10T15:02:55.048Z,99.90
2019-03-10T15:05:22.682Z,99.90
2019-03-10T15:07:50.353Z,99.90
2019-03-10T15:10:18.039Z,99.90
2019-03-10T15:12:45.759Z,99.90
2019-03-10T15:15:22.313Z,99.90
2019-03-10T15:17:44.296Z,99.90
2019-03-10T15:20:13.482Z,99.90
2019-03-10T15:22:41.174Z,99.90
2019-03-10T15:25:13.448Z,99.90
2019-03-10T15:27:41.082Z,99.90
2019-03-10T15:30:18.454Z,99.90
2019-03-10T15:32:46.098Z,99.90
2019-03-10T15:35:14.110Z,99.90
2019-03-10T15:40:10.673Z,99.90
2019-03-10T15:42:39.363Z,99.90
2019-03-10T15:45:08.678Z,99.90
2019-03-10T15:47:36.313Z,99.90
2019-03-10T15:50:05.503Z,99.90
2019-03-10T15:52:39.067Z,99.90
2019-03-10T15:55:06.742Z,99.90
2019-03-10T15:57:34.413Z,99.90
2019-03-10T16:00:02.115Z,99.90
2019-03-10T16:02:30.737Z,99.90
2019-03-10T16:04:58.398Z,99.90
2019-03-10T16:07:26.042Z,99.90
2019-03-10T16:09:53.687Z,99.90
2019-03-10T16:12:21.315Z,99.90
2019-03-10T16:14:48.967Z,99.90
2019-03-10T16:17:16.603Z,99.90
2019-03-10T16:19:44.246Z,99.90
2019-03-10T16:22:11.878Z,99.90
2019-03-10T16:24:39.528Z,99.90
2019-03-10T16:27:07.165Z,99.90
2019-03-10T16:29:34.809Z,99.90
2019-03-10T16:32:03.374Z,99.90
2019-03-10T16:34:31.005Z,99.90
2019-03-10T16:36:58.651Z,99.90
2019-03-10T16:39:26.282Z,99.90
2019-03-10T16:41:53.926Z,99.90
2019-03-10T16:44:21.639Z,99.90
2019-03-10T16:46:49.278Z,99.90
2019-03-10T16:49:16.924Z,99.90
2019-03-10T16:51:44.570Z,99.90
2019-03-10T16:54:12.203Z,99.90
2019-03-10T16:56:39.844Z,99.90
2019-03-10T16:59:07.479Z,99.90
2019-03-10T17:01:35.139Z,99.90
2019-03-10T17:04:08.719Z,99.90
2019-03-10T17:06:36.357Z,99.90
2019-03-10T17:09:05.535Z,99.90
2019-03-10T17:14:02.077Z,99.90
2019-03-10T17:16:29.722Z,99.90
2019-03-10T17:18:57.363Z,99.90
2019-03-10T17:21:25.038Z,99.90
2019-03-10T17:23:53.694Z,99.90
2019-03-10T17:31:16.077Z,99.90
2019-03-10T17:33:44.647Z,99.90
2019-03-10T17:36:13.127Z,99.90
2019-03-10T17:38:40.758Z,99.90
2019-03-10T17:41:08.407Z,99.10
2019-03-10T17:46:03.560Z,98.90
2019-03-10T17:48:31.188Z,99.50
2019-03-10T17:50:58.826Z,99.80
2019-03-10T17:53:26.478Z,99.90
2019-03-10T17:55:54.102Z,99.90
2019-03-10T18:00:49.103Z,98.70
2019-03-10T18:03:23.558Z,97.20
2019-03-10T18:05:51.200Z,97.10
2019-03-10T18:08:18.850Z,97.80
2019-03-10T18:13:13.867Z,97.70
2019-03-10T18:15:41.502Z,98.80
2019-03-10T18:18:09.151Z,99.90
2019-03-10T18:20:36.883Z,99.30
2019-03-10T18:23:04.511Z,99.90
2019-03-10T18:25:32.215Z,99.90
2019-03-10T18:27:59.871Z,99.90
2019-03-10T18:30:27.495Z,99.90
2019-03-10T18:35:23.460Z,99.90
2019-03-10T18:37:51.110Z,99.90
2019-03-10T18:40:22.314Z,99.90
2019-03-10T18:42:56.806Z,99.90
2019-03-10T18:45:24.420Z,99.90
2019-03-10T18:47:52.065Z,99.90
2019-03-10T18:50:23.517Z,99.90
2019-03-10T18:52:54.414Z,99.90
2019-03-10T18:55:23.314Z,99.90
2019-03-10T18:57:50.950Z,99.90
2019-03-10T19:00:25.043Z,99.90
2019-03-10T19:02:53.671Z,99.90
2019-03-10T19:05:21.302Z,99.90
2019-03-10T19:07:48.921Z,99.90
2019-03-10T19:10:16.559Z,99.90
2019-03-10T19:12:44.193Z,99.90
2019-03-10T19:15:13.373Z,99.90
2019-03-10T19:17:40.994Z,99.90
2019-03-10T19:20:10.187Z,99.90
2019-03-10T19:22:37.830Z,99.90
2019-03-10T19:25:06.037Z,99.90
2019-03-10T19:27:33.664Z,99.90
2019-03-10T19:37:23.422Z,99.90
2019-03-10T19:42:18.430Z,99.90
2019-03-10T19:44:46.078Z,99.90
2019-03-10T19:47:13.727Z,99.90
2019-03-10T19:49:41.376Z,99.90
2019-03-10T19:52:08.998Z,99.90
2019-03-10T19:54:36.642Z,99.90
2019-03-10T19:57:04.286Z,99.90
2019-03-10T19:59:31.935Z,99.90
2019-03-10T20:01:59.565Z,99.90
2019-03-10T20:04:27.199Z,99.90
2019-03-10T20:06:54.851Z,99.90
2019-03-10T20:09:22.474Z,99.90
2019-03-10T20:11:50.122Z,99.90
2019-03-10T20:14:17.757Z,99.90
2019-03-10T20:16:45.389Z,99.90
2019-03-10T20:19:13.022Z,99.90
2019-03-10T20:21:40.668Z,99.90
2019-03-10T20:24:08.290Z,99.90
2019-03-10T20:26:35.929Z,99.90
2019-03-10T20:29:03.630Z,99.90
2019-03-10T20:31:31.278Z,99.90
2019-03-10T20:33:58.930Z,99.90
2019-03-10T20:36:28.573Z,99.90
2019-03-10T20:38:55.975Z,99.90
2019-03-10T20:41:23.821Z,99.90
2019-03-10T20:43:51.453Z,99.90
2019-03-10T20:46:19.134Z,99.90
2019-03-10T20:48:46.776Z,99.90
2019-03-10T20:51:14.422Z,99.90
2019-03-10T20:53:48.023Z,99.90
2019-03-10T20:56:15.673Z,99.90
2019-03-10T20:58:43.296Z,99.90
2019-03-10T21:01:10.955Z,99.90
2019-03-10T21:03:38.583Z,99.90
2019-03-10T21:06:06.286Z,99.90
2019-03-10T21:08:33.918Z,99.90
2019-03-10T21:11:01.549Z,99.90
2019-03-10T21:13:31.181Z,99.90
2019-03-10T21:15:58.877Z,99.90
2019-03-10T21:18:26.520Z,99.90
2019-03-10T21:20:54.142Z,99.90
2019-03-10T21:23:24.794Z,99.90
2019-03-10T21:25:52.427Z,99.90
2019-03-10T21:28:20.092Z,99.90
2019-03-10T21:30:47.701Z,99.90
2019-03-10T21:33:15.341Z,99.90
2019-03-10T21:35:42.973Z,99.90
2019-03-10T21:38:10.618Z,99.90
2019-03-10T21:40:38.251Z,99.90
2019-03-10T21:43:05.890Z,99.90
2019-03-10T21:45:33.510Z,99.90
2019-03-10T21:48:01.146Z,99.90
2019-03-10T21:50:28.778Z,99.90
2019-03-10T21:52:56.423Z,99.90
2019-03-10T21:55:24.051Z,99.90
2019-03-10T21:57:51.694Z,99.90
2019-03-10T22:00:22.399Z,99.90
2019-03-10T22:02:50.029Z,99.90
2019-03-10T22:05:17.733Z,99.90
2019-03-10T22:07:45.382Z,99.90
2019-03-10T22:10:26.357Z,99.90
2019-03-10T22:12:45.946Z,99.90
2019-03-10T22:15:14.453Z,99.90
2019-03-10T22:17:42.086Z,99.90
2019-03-10T22:20:13.495Z,99.90
2019-03-10T22:22:48.201Z,99.90
2019-03-10T22:25:13.007Z,99.90
2019-03-10T22:27:40.631Z,99.90
2019-03-10T22:30:17.746Z,99.90
2019-03-10T22:32:45.382Z,99.90
2019-03-10T22:35:13.025Z,99.90
2019-03-10T22:37:40.659Z,99.90
2019-03-10T22:40:09.879Z,99.90
2019-03-10T22:42:37.507Z,99.90
2019-03-10T22:45:06.410Z,99.90
2019-03-10T22:47:34.051Z,99.90
2019-03-10T22:50:03.129Z,99.90
2019-03-10T22:52:30.902Z,99.90
2019-03-10T22:54:58.546Z,99.90
2019-03-10T22:57:26.192Z,99.90
2019-03-10T22:59:53.831Z,99.90
2019-03-10T23:02:21.457Z,99.90
2019-03-10T23:04:49.099Z,99.90
2019-03-10T23:07:16.730Z,99.90
2019-03-10T23:09:44.374Z,99.90
2019-03-10T23:12:19.626Z,99.90
2019-03-10T23:14:47.270Z,99.90
2019-03-10T23:17:14.901Z,99.90
2019-03-10T23:19:42.546Z,99.90
2019-03-10T23:22:10.196Z,99.90
2019-03-10T23:24:37.850Z,99.90
2019-03-10T23:27:05.546Z,99.90
2019-03-10T23:29:33.186Z,99.90
2019-03-10T23:36:55.555Z,99.90
2019-03-10T23:39:23.191Z,99.90
2019-03-10T23:41:50.829Z,99.90
2019-03-10T23:44:18.450Z,99.90
2019-03-10T23:46:46.109Z,99.90
2019-03-10T23:56:35.848Z,99.90
